sensor_id;sensor_type;location;lat;lon;timestamp;P1;durP1;ratioP1;P2;durP2;ratioP2
52434;SDS011;38354;52.892;6.148;2024-03-23T05:01:44;19.00;;;2.72;;
52434;SDS011;38354;52.892;6.148;2024-03-23T05:04:10;20.30;;;2.80;;
52434;SDS011;38354;52.892;6.148;2024-03-23T05:06:36;16.83;;;2.70;;
52434;SDS011;38354;52.892;6.148;2024-03-23T05:09:01;14.98;;;3.15;;
52434;SDS011;38354;52.892;6.148;2024-03-23T05:11:31;19.77;;;2.78;;
52434;SDS011;38354;52.892;6.148;2024-03-23T05:13:57;16.10;;;2.58;;
52434;SDS011;38354;52.892;6.148;2024-03-23T05:16:23;21.60;;;3.33;;
52434;SDS011;38354;52.892;6.148;2024-03-23T05:18:48;28.60;;;3.72;;
52434;SDS011;38354;52.892;6.148;2024-03-23T05:21:14;22.10;;;3.88;;
52434;SDS011;38354;52.892;6.148;2024-03-23T05:23:39;21.35;;;3.38;;
52434;SDS011;38354;52.892;6.148;2024-03-23T05:26:05;15.75;;;2.90;;
52434;SDS011;38354;52.892;6.148;2024-03-23T05:28:31;15.40;;;2.38;;
52434;SDS011;38354;52.892;6.148;2024-03-23T05:30:56;19.50;;;3.17;;
52434;SDS011;38354;52.892;6.148;2024-03-23T05:33:22;17.08;;;2.97;;
52434;SDS011;38354;52.892;6.148;2024-03-23T05:35:55;22.98;;;3.40;;
52434;SDS011;38354;52.892;6.148;2024-03-23T05:38:22;27.50;;;2.88;;
52434;SDS011;38354;52.892;6.148;2024-03-23T05:40:54;16.98;;;2.72;;
52434;SDS011;38354;52.892;6.148;2024-03-23T05:43:21;16.83;;;3.03;;
52434;SDS011;38354;52.892;6.148;2024-03-23T05:45:55;15.95;;;2.90;;
52434;SDS011;38354;52.892;6.148;2024-03-23T05:50:48;28.40;;;3.80;;
52434;SDS011;38354;52.892;6.148;2024-03-23T05:53:15;14.05;;;2.92;;
52434;SDS011;38354;52.892;6.148;2024-03-23T05:55:41;17.73;;;3.03;;
52434;SDS011;38354;52.892;6.148;2024-03-23T05:58:08;15.35;;;2.80;;
52434;SDS011;38354;52.892;6.148;2024-03-23T06:00:33;12.25;;;3.03;;
52434;SDS011;38354;52.892;6.148;2024-03-23T06:02:59;6.55;;;1.70;;
52434;SDS011;38354;52.892;6.148;2024-03-23T06:05:25;7.97;;;1.33;;
52434;SDS011;38354;52.892;6.148;2024-03-23T06:07:51;4.78;;;1.30;;
52434;SDS011;38354;52.892;6.148;2024-03-23T06:10:17;7.03;;;2.13;;
52434;SDS011;38354;52.892;6.148;2024-03-23T06:12:43;10.02;;;2.10;;
52434;SDS011;38354;52.892;6.148;2024-03-23T06:15:10;9.63;;;2.13;;
52434;SDS011;38354;52.892;6.148;2024-03-23T06:17:36;10.23;;;2.50;;
52434;SDS011;38354;52.892;6.148;2024-03-23T06:20:02;13.40;;;2.22;;
52434;SDS011;38354;52.892;6.148;2024-03-23T06:22:28;11.68;;;2.38;;
52434;SDS011;38354;52.892;6.148;2024-03-23T06:24:54;15.35;;;2.55;;
52434;SDS011;38354;52.892;6.148;2024-03-23T06:27:20;11.43;;;1.77;;
52434;SDS011;38354;52.892;6.148;2024-03-23T06:29:49;7.38;;;2.15;;
52434;SDS011;38354;52.892;6.148;2024-03-23T06:32:15;14.68;;;2.10;;
52434;SDS011;38354;52.892;6.148;2024-03-23T06:34:43;14.48;;;2.30;;
52434;SDS011;38354;52.892;6.148;2024-03-23T06:37:10;12.13;;;2.78;;
52434;SDS011;38354;52.892;6.148;2024-03-23T06:39:37;10.57;;;3.17;;
52434;SDS011;38354;52.892;6.148;2024-03-23T06:42:03;12.57;;;2.25;;
52434;SDS011;38354;52.892;6.148;2024-03-23T06:44:29;22.88;;;3.13;;
52434;SDS011;38354;52.892;6.148;2024-03-23T06:46:55;14.75;;;2.42;;
52434;SDS011;38354;52.892;6.148;2024-03-23T06:49:22;13.05;;;2.58;;
52434;SDS011;38354;52.892;6.148;2024-03-23T06:51:47;14.43;;;3.47;;
52434;SDS011;38354;52.892;6.148;2024-03-23T06:54:13;20.30;;;3.92;;
52434;SDS011;38354;52.892;6.148;2024-03-23T06:56:39;15.40;;;2.70;;
52434;SDS011;38354;52.892;6.148;2024-03-23T07:02:56;6.32;;;1.45;;
52434;SDS011;38354;52.892;6.148;2024-03-23T07:36:47;11.23;;;2.55;;
52434;SDS011;38354;52.892;6.148;2024-03-23T07:42:39;13.88;;;2.55;;
52434;SDS011;38354;52.892;6.148;2024-03-23T07:51:42;14.30;;;2.38;;
52434;SDS011;38354;52.892;6.148;2024-03-23T08:03:40;9.82;;;2.55;;
52434;SDS011;38354;52.892;6.148;2024-03-23T08:08:34;11.25;;;2.92;;
52434;SDS011;38354;52.892;6.148;2024-03-23T08:11:00;16.73;;;3.30;;
52434;SDS011;38354;52.892;6.148;2024-03-23T08:13:26;13.90;;;3.42;;
52434;SDS011;38354;52.892;6.148;2024-03-23T08:15:51;17.70;;;4.72;;
52434;SDS011;38354;52.892;6.148;2024-03-23T08:18:21;18.55;;;4.00;;
52434;SDS011;38354;52.892;6.148;2024-03-23T08:21:01;9.07;;;3.47;;
52434;SDS011;38354;52.892;6.148;2024-03-23T08:23:29;13.98;;;3.53;;
52434;SDS011;38354;52.892;6.148;2024-03-23T08:25:59;19.95;;;3.78;;
52434;SDS011;38354;52.892;6.148;2024-03-23T08:28:35;23.30;;;4.13;;
52434;SDS011;38354;52.892;6.148;2024-03-23T08:31:13;12.50;;;4.35;;
52434;SDS011;38354;52.892;6.148;2024-03-23T08:42:00;10.32;;;1.73;;
52434;SDS011;38354;52.892;6.148;2024-03-23T08:44:25;16.77;;;2.30;;
52434;SDS011;38354;52.892;6.148;2024-03-23T08:46:51;16.00;;;2.85;;
52434;SDS011;38354;52.892;6.148;2024-03-23T08:49:19;10.13;;;2.33;;
52434;SDS011;38354;52.892;6.148;2024-03-23T08:52:23;13.48;;;2.78;;
52434;SDS011;38354;52.892;6.148;2024-03-23T08:54:50;17.48;;;3.38;;
52434;SDS011;38354;52.892;6.148;2024-03-23T08:57:16;12.95;;;2.33;;
52434;SDS011;38354;52.892;6.148;2024-03-23T08:59:42;14.77;;;3.20;;
52434;SDS011;38354;52.892;6.148;2024-03-23T09:02:07;18.55;;;3.15;;
52434;SDS011;38354;52.892;6.148;2024-03-23T09:04:33;11.73;;;3.10;;
52434;SDS011;38354;52.892;6.148;2024-03-23T09:06:58;17.63;;;3.00;;
52434;SDS011;38354;52.892;6.148;2024-03-23T09:09:25;11.63;;;2.80;;
52434;SDS011;38354;52.892;6.148;2024-03-23T09:11:50;12.85;;;2.80;;
52434;SDS011;38354;52.892;6.148;2024-03-23T09:14:16;19.20;;;3.00;;
52434;SDS011;38354;52.892;6.148;2024-03-23T09:16:42;13.48;;;2.55;;
52434;SDS011;38354;52.892;6.148;2024-03-23T09:19:18;14.02;;;2.58;;
52434;SDS011;38354;52.892;6.148;2024-03-23T09:21:51;15.63;;;2.92;;
52434;SDS011;38354;52.892;6.148;2024-03-23T09:24:17;14.70;;;3.08;;
52434;SDS011;38354;52.892;6.148;2024-03-23T09:26:44;19.77;;;3.97;;
52434;SDS011;38354;52.892;6.148;2024-03-23T09:29:32;11.10;;;2.95;;
52434;SDS011;38354;52.892;6.148;2024-03-23T09:32:01;13.45;;;2.28;;
52434;SDS011;38354;52.892;6.148;2024-03-23T09:34:45;9.70;;;2.50;;
52434;SDS011;38354;52.892;6.148;2024-03-23T09:37:11;14.85;;;3.05;;
52434;SDS011;38354;52.892;6.148;2024-03-23T09:39:36;6.50;;;1.80;;
52434;SDS011;38354;52.892;6.148;2024-03-23T09:42:02;11.98;;;2.03;;
52434;SDS011;38354;52.892;6.148;2024-03-23T09:44:29;13.30;;;2.60;;
52434;SDS011;38354;52.892;6.148;2024-03-23T09:47:04;12.68;;;2.53;;
52434;SDS011;38354;52.892;6.148;2024-03-23T09:49:33;13.35;;;2.47;;
52434;SDS011;38354;52.892;6.148;2024-03-23T09:52:01;6.93;;;1.55;;
52434;SDS011;38354;52.892;6.148;2024-03-23T09:54:28;6.25;;;1.60;;
52434;SDS011;38354;52.892;6.148;2024-03-23T09:56:54;8.85;;;1.48;;
52434;SDS011;38354;52.892;6.148;2024-03-23T09:59:19;8.52;;;1.63;;
52434;SDS011;38354;52.892;6.148;2024-03-23T10:01:45;18.02;;;2.17;;
52434;SDS011;38354;52.892;6.148;2024-03-23T10:04:33;6.13;;;1.23;;
52434;SDS011;38354;52.892;6.148;2024-03-23T10:09:45;7.40;;;1.88;;
52434;SDS011;38354;52.892;6.148;2024-03-23T10:12:34;9.07;;;1.40;;
52434;SDS011;38354;52.892;6.148;2024-03-23T10:14:59;9.02;;;1.67;;
52434;SDS011;38354;52.892;6.148;2024-03-23T10:17:25;6.35;;;1.38;;
52434;SDS011;38354;52.892;6.148;2024-03-23T10:19:51;7.40;;;1.67;;
52434;SDS011;38354;52.892;6.148;2024-03-23T10:22:21;4.65;;;1.27;;
52434;SDS011;38354;52.892;6.148;2024-03-23T10:24:48;7.88;;;1.98;;
52434;SDS011;38354;52.892;6.148;2024-03-23T10:27:18;7.53;;;1.73;;
52434;SDS011;38354;52.892;6.148;2024-03-23T10:29:47;9.25;;;1.45;;
52434;SDS011;38354;52.892;6.148;2024-03-23T10:32:14;6.07;;;1.13;;
52434;SDS011;38354;52.892;6.148;2024-03-23T10:34:44;9.38;;;1.40;;
52434;SDS011;38354;52.892;6.148;2024-03-23T10:37:10;6.15;;;1.98;;
52434;SDS011;38354;52.892;6.148;2024-03-23T10:39:36;4.85;;;1.27;;
52434;SDS011;38354;52.892;6.148;2024-03-23T10:42:06;8.98;;;1.70;;
52434;SDS011;38354;52.892;6.148;2024-03-23T10:44:33;7.00;;;1.77;;
52434;SDS011;38354;52.892;6.148;2024-03-23T10:47:03;9.80;;;2.20;;
52434;SDS011;38354;52.892;6.148;2024-03-23T10:49:33;11.52;;;1.80;;
52434;SDS011;38354;52.892;6.148;2024-03-23T10:52:00;7.68;;;1.67;;
52434;SDS011;38354;52.892;6.148;2024-03-23T10:54:27;9.20;;;1.55;;
52434;SDS011;38354;52.892;6.148;2024-03-23T10:59:31;9.02;;;1.65;;
52434;SDS011;38354;52.892;6.148;2024-03-23T11:01:59;9.65;;;2.15;;
52434;SDS011;38354;52.892;6.148;2024-03-23T11:04:31;8.13;;;1.80;;
52434;SDS011;38354;52.892;6.148;2024-03-23T11:09:53;4.30;;;1.00;;
52434;SDS011;38354;52.892;6.148;2024-03-23T11:25:25;6.15;;;1.40;;
52434;SDS011;38354;52.892;6.148;2024-03-23T11:34:41;9.75;;;1.83;;
52434;SDS011;38354;52.892;6.148;2024-03-23T11:37:07;7.85;;;1.95;;
52434;SDS011;38354;52.892;6.148;2024-03-23T11:39:35;7.18;;;1.55;;
52434;SDS011;38354;52.892;6.148;2024-03-23T11:42:04;1.50;;;0.60;;
52434;SDS011;38354;52.892;6.148;2024-03-23T11:44:34;1.08;;;0.45;;
52434;SDS011;38354;52.892;6.148;2024-03-23T11:47:08;1.45;;;0.43;;
52434;SDS011;38354;52.892;6.148;2024-03-23T11:49:36;2.20;;;0.50;;
52434;SDS011;38354;52.892;6.148;2024-03-23T11:52:06;3.45;;;0.60;;
52434;SDS011;38354;52.892;6.148;2024-03-23T11:54:32;3.80;;;0.85;;
52434;SDS011;38354;52.892;6.148;2024-03-23T11:56:59;5.28;;;0.90;;
52434;SDS011;38354;52.892;6.148;2024-03-23T11:59:38;3.63;;;1.17;;
52434;SDS011;38354;52.892;6.148;2024-03-23T12:02:06;8.10;;;1.25;;
52434;SDS011;38354;52.892;6.148;2024-03-23T12:04:33;7.30;;;1.45;;
52434;SDS011;38354;52.892;6.148;2024-03-23T12:07:17;10.18;;;1.75;;
52434;SDS011;38354;52.892;6.148;2024-03-23T12:10:02;10.75;;;2.25;;
52434;SDS011;38354;52.892;6.148;2024-03-23T12:12:31;9.18;;;1.77;;
52434;SDS011;38354;52.892;6.148;2024-03-23T12:15:04;8.80;;;1.90;;
52434;SDS011;38354;52.892;6.148;2024-03-23T12:17:31;9.57;;;2.28;;
52434;SDS011;38354;52.892;6.148;2024-03-23T12:19:57;17.25;;;2.72;;
52434;SDS011;38354;52.892;6.148;2024-03-23T12:22:23;13.32;;;1.95;;
52434;SDS011;38354;52.892;6.148;2024-03-23T12:24:49;12.65;;;2.35;;
52434;SDS011;38354;52.892;6.148;2024-03-23T12:27:15;8.32;;;2.42;;
52434;SDS011;38354;52.892;6.148;2024-03-23T12:29:42;11.90;;;2.58;;
52434;SDS011;38354;52.892;6.148;2024-03-23T12:32:11;8.02;;;1.65;;
52434;SDS011;38354;52.892;6.148;2024-03-23T12:34:37;10.90;;;1.85;;
52434;SDS011;38354;52.892;6.148;2024-03-23T12:37:03;7.28;;;1.95;;
52434;SDS011;38354;52.892;6.148;2024-03-23T12:39:35;11.07;;;2.03;;
52434;SDS011;38354;52.892;6.148;2024-03-23T12:42:01;12.25;;;1.75;;
52434;SDS011;38354;52.892;6.148;2024-03-23T12:44:30;16.05;;;2.95;;
52434;SDS011;38354;52.892;6.148;2024-03-23T12:46:56;17.73;;;2.17;;
52434;SDS011;38354;52.892;6.148;2024-03-23T12:49:32;11.63;;;1.83;;
52434;SDS011;38354;52.892;6.148;2024-03-23T12:54:24;10.20;;;2.03;;
52434;SDS011;38354;52.892;6.148;2024-03-23T12:56:53;8.07;;;1.90;;
52434;SDS011;38354;52.892;6.148;2024-03-23T12:59:22;9.65;;;2.08;;
52434;SDS011;38354;52.892;6.148;2024-03-23T13:01:47;9.35;;;2.33;;
52434;SDS011;38354;52.892;6.148;2024-03-23T13:04:13;12.23;;;2.25;;
52434;SDS011;38354;52.892;6.148;2024-03-23T13:06:39;12.25;;;2.13;;
52434;SDS011;38354;52.892;6.148;2024-03-23T13:09:05;10.88;;;2.50;;
52434;SDS011;38354;52.892;6.148;2024-03-23T13:11:30;12.80;;;2.50;;
52434;SDS011;38354;52.892;6.148;2024-03-23T13:14:14;11.57;;;2.63;;
52434;SDS011;38354;52.892;6.148;2024-03-23T13:16:52;13.95;;;2.03;;
52434;SDS011;38354;52.892;6.148;2024-03-23T13:19:18;8.55;;;2.20;;
52434;SDS011;38354;52.892;6.148;2024-03-23T13:21:44;10.63;;;2.22;;
52434;SDS011;38354;52.892;6.148;2024-03-23T13:24:10;8.20;;;2.03;;
52434;SDS011;38354;52.892;6.148;2024-03-23T13:26:35;8.45;;;2.08;;
52434;SDS011;38354;52.892;6.148;2024-03-23T13:29:01;11.60;;;1.92;;
52434;SDS011;38354;52.892;6.148;2024-03-23T13:31:27;15.40;;;2.58;;
52434;SDS011;38354;52.892;6.148;2024-03-23T13:33:53;11.90;;;3.13;;
52434;SDS011;38354;52.892;6.148;2024-03-23T13:36:18;9.10;;;1.95;;
52434;SDS011;38354;52.892;6.148;2024-03-23T13:38:44;12.90;;;2.17;;
52434;SDS011;38354;52.892;6.148;2024-03-23T13:41:09;14.07;;;2.45;;
52434;SDS011;38354;52.892;6.148;2024-03-23T13:43:37;14.27;;;2.50;;
52434;SDS011;38354;52.892;6.148;2024-03-23T13:46:03;11.50;;;2.28;;
52434;SDS011;38354;52.892;6.148;2024-03-23T13:48:28;11.32;;;2.47;;
52434;SDS011;38354;52.892;6.148;2024-03-23T13:51:01;10.63;;;2.20;;
52434;SDS011;38354;52.892;6.148;2024-03-23T13:53:28;11.80;;;2.40;;
52434;SDS011;38354;52.892;6.148;2024-03-23T13:55:57;14.18;;;2.63;;
52434;SDS011;38354;52.892;6.148;2024-03-23T13:58:25;6.30;;;1.80;;
52434;SDS011;38354;52.892;6.148;2024-03-23T14:00:51;7.90;;;1.60;;
52434;SDS011;38354;52.892;6.148;2024-03-23T14:03:17;14.63;;;2.20;;
52434;SDS011;38354;52.892;6.148;2024-03-23T14:05:46;12.65;;;2.28;;
52434;SDS011;38354;52.892;6.148;2024-03-23T14:08:14;9.05;;;2.00;;
52434;SDS011;38354;52.892;6.148;2024-03-23T14:10:40;8.43;;;2.17;;
52434;SDS011;38354;52.892;6.148;2024-03-23T14:13:07;8.70;;;1.83;;
52434;SDS011;38354;52.892;6.148;2024-03-23T14:15:32;11.13;;;2.00;;
52434;SDS011;38354;52.892;6.148;2024-03-23T14:17:58;14.10;;;2.42;;
52434;SDS011;38354;52.892;6.148;2024-03-23T14:20:24;10.05;;;2.00;;
52434;SDS011;38354;52.892;6.148;2024-03-23T14:22:50;7.97;;;1.83;;
52434;SDS011;38354;52.892;6.148;2024-03-23T14:25:17;11.80;;;2.80;;
52434;SDS011;38354;52.892;6.148;2024-03-23T14:27:46;7.78;;;1.70;;
52434;SDS011;38354;52.892;6.148;2024-03-23T14:30:12;9.68;;;2.03;;
52434;SDS011;38354;52.892;6.148;2024-03-23T14:32:39;10.52;;;2.17;;
52434;SDS011;38354;52.892;6.148;2024-03-23T14:35:05;11.15;;;2.08;;
52434;SDS011;38354;52.892;6.148;2024-03-23T14:37:32;7.32;;;1.52;;
52434;SDS011;38354;52.892;6.148;2024-03-23T14:39:58;12.80;;;2.83;;
52434;SDS011;38354;52.892;6.148;2024-03-23T14:42:24;16.02;;;2.83;;
52434;SDS011;38354;52.892;6.148;2024-03-23T14:44:53;13.77;;;2.20;;
52434;SDS011;38354;52.892;6.148;2024-03-23T14:47:19;13.65;;;2.00;;
52434;SDS011;38354;52.892;6.148;2024-03-23T14:49:46;12.40;;;2.40;;
52434;SDS011;38354;52.892;6.148;2024-03-23T14:52:19;9.32;;;2.17;;
52434;SDS011;38354;52.892;6.148;2024-03-23T14:54:45;10.63;;;2.10;;
52434;SDS011;38354;52.892;6.148;2024-03-23T14:57:11;13.95;;;2.20;;
52434;SDS011;38354;52.892;6.148;2024-03-23T14:59:37;12.20;;;2.67;;
52434;SDS011;38354;52.892;6.148;2024-03-23T15:02:03;14.05;;;2.15;;
52434;SDS011;38354;52.892;6.148;2024-03-23T15:04:30;10.40;;;1.73;;
52434;SDS011;38354;52.892;6.148;2024-03-23T15:06:55;10.15;;;1.52;;
52434;SDS011;38354;52.892;6.148;2024-03-23T15:09:21;5.50;;;1.08;;
52434;SDS011;38354;52.892;6.148;2024-03-23T15:11:47;6.38;;;2.13;;
52434;SDS011;38354;52.892;6.148;2024-03-23T15:14:12;4.03;;;1.60;;
52434;SDS011;38354;52.892;6.148;2024-03-23T15:16:38;6.75;;;2.30;;
52434;SDS011;38354;52.892;6.148;2024-03-23T15:19:03;6.75;;;2.35;;
52434;SDS011;38354;52.892;6.148;2024-03-23T15:21:31;11.80;;;2.05;;
52434;SDS011;38354;52.892;6.148;2024-03-23T15:23:57;8.82;;;2.65;;
52434;SDS011;38354;52.892;6.148;2024-03-23T15:26:22;9.10;;;1.98;;
52434;SDS011;38354;52.892;6.148;2024-03-23T15:28:48;7.38;;;2.08;;
52434;SDS011;38354;52.892;6.148;2024-03-23T15:31:23;11.07;;;2.60;;
52434;SDS011;38354;52.892;6.148;2024-03-23T15:33:50;14.95;;;4.65;;
52434;SDS011;38354;52.892;6.148;2024-03-23T15:36:16;13.90;;;4.55;;
52434;SDS011;38354;52.892;6.148;2024-03-23T15:38:42;12.73;;;3.17;;
52434;SDS011;38354;52.892;6.148;2024-03-23T15:41:08;20.58;;;6.57;;
52434;SDS011;38354;52.892;6.148;2024-03-23T15:43:34;39.67;;;12.48;;
52434;SDS011;38354;52.892;6.148;2024-03-23T15:46:03;8.77;;;1.92;;
52434;SDS011;38354;52.892;6.148;2024-03-23T15:48:31;8.80;;;1.90;;
52434;SDS011;38354;52.892;6.148;2024-03-23T15:51:01;11.18;;;1.80;;
52434;SDS011;38354;52.892;6.148;2024-03-23T15:53:29;10.88;;;2.42;;
52434;SDS011;38354;52.892;6.148;2024-03-23T15:55:58;9.02;;;1.50;;
52434;SDS011;38354;52.892;6.148;2024-03-23T15:58:25;7.47;;;1.20;;
52434;SDS011;38354;52.892;6.148;2024-03-23T16:00:55;5.32;;;1.55;;
52434;SDS011;38354;52.892;6.148;2024-03-23T16:03:22;6.65;;;1.90;;
52434;SDS011;38354;52.892;6.148;2024-03-23T16:05:51;4.97;;;1.20;;
52434;SDS011;38354;52.892;6.148;2024-03-23T16:08:21;5.18;;;1.10;;
52434;SDS011;38354;52.892;6.148;2024-03-23T16:10:48;5.55;;;1.50;;
52434;SDS011;38354;52.892;6.148;2024-03-23T16:13:14;6.22;;;1.40;;
52434;SDS011;38354;52.892;6.148;2024-03-23T16:15:40;5.80;;;2.03;;
52434;SDS011;38354;52.892;6.148;2024-03-23T16:18:05;7.72;;;1.40;;
52434;SDS011;38354;52.892;6.148;2024-03-23T16:20:31;8.63;;;2.13;;
52434;SDS011;38354;52.892;6.148;2024-03-23T16:23:00;7.70;;;1.90;;
52434;SDS011;38354;52.892;6.148;2024-03-23T16:25:26;7.32;;;1.42;;
52434;SDS011;38354;52.892;6.148;2024-03-23T16:27:52;5.32;;;1.25;;
52434;SDS011;38354;52.892;6.148;2024-03-23T16:30:19;5.72;;;1.23;;
52434;SDS011;38354;52.892;6.148;2024-03-23T16:32:45;10.10;;;1.67;;
52434;SDS011;38354;52.892;6.148;2024-03-23T16:35:14;9.80;;;1.60;;
52434;SDS011;38354;52.892;6.148;2024-03-23T16:37:40;7.90;;;1.65;;
52434;SDS011;38354;52.892;6.148;2024-03-23T16:40:07;11.52;;;2.13;;
52434;SDS011;38354;52.892;6.148;2024-03-23T16:42:34;11.32;;;2.00;;
52434;SDS011;38354;52.892;6.148;2024-03-23T16:45:00;8.05;;;1.92;;
52434;SDS011;38354;52.892;6.148;2024-03-23T16:47:26;8.90;;;2.97;;
52434;SDS011;38354;52.892;6.148;2024-03-23T16:49:55;8.75;;;1.95;;
52434;SDS011;38354;52.892;6.148;2024-03-23T16:52:22;10.27;;;3.92;;
52434;SDS011;38354;52.892;6.148;2024-03-23T16:54:47;5.72;;;2.38;;
52434;SDS011;38354;52.892;6.148;2024-03-23T16:57:13;10.32;;;1.80;;
52434;SDS011;38354;52.892;6.148;2024-03-23T16:59:39;5.28;;;1.92;;
52434;SDS011;38354;52.892;6.148;2024-03-23T17:02:04;7.78;;;1.75;;
52434;SDS011;38354;52.892;6.148;2024-03-23T17:04:30;5.50;;;1.10;;
52434;SDS011;38354;52.892;6.148;2024-03-23T17:06:55;4.60;;;1.08;;
52434;SDS011;38354;52.892;6.148;2024-03-23T17:09:21;5.70;;;1.17;;
52434;SDS011;38354;52.892;6.148;2024-03-23T17:11:47;7.20;;;1.73;;
52434;SDS011;38354;52.892;6.148;2024-03-23T17:14:14;11.15;;;6.07;;
52434;SDS011;38354;52.892;6.148;2024-03-23T17:16:40;5.82;;;3.25;;
52434;SDS011;38354;52.892;6.148;2024-03-23T17:19:06;7.68;;;1.70;;
52434;SDS011;38354;52.892;6.148;2024-03-23T17:21:34;5.97;;;1.70;;
52434;SDS011;38354;52.892;6.148;2024-03-23T17:24:00;5.00;;;1.65;;
52434;SDS011;38354;52.892;6.148;2024-03-23T17:26:25;5.72;;;1.35;;
52434;SDS011;38354;52.892;6.148;2024-03-23T17:28:51;9.05;;;1.75;;
52434;SDS011;38354;52.892;6.148;2024-03-23T17:31:17;3.88;;;1.20;;
52434;SDS011;38354;52.892;6.148;2024-03-23T17:33:49;7.22;;;1.20;;
52434;SDS011;38354;52.892;6.148;2024-03-23T17:36:16;4.15;;;1.05;;
52434;SDS011;38354;52.892;6.148;2024-03-23T17:38:46;3.42;;;1.23;;
52434;SDS011;38354;52.892;6.148;2024-03-23T17:41:11;6.10;;;0.90;;
52434;SDS011;38354;52.892;6.148;2024-03-23T17:43:37;5.97;;;1.73;;
52434;SDS011;38354;52.892;6.148;2024-03-23T17:46:03;5.40;;;1.10;;
52434;SDS011;38354;52.892;6.148;2024-03-23T17:48:30;9.00;;;1.10;;
52434;SDS011;38354;52.892;6.148;2024-03-23T17:51:05;7.07;;;1.20;;
52434;SDS011;38354;52.892;6.148;2024-03-23T17:56:03;8.05;;;1.42;;
52434;SDS011;38354;52.892;6.148;2024-03-23T17:58:30;6.57;;;1.20;;
52434;SDS011;38354;52.892;6.148;2024-03-23T18:00:56;11.18;;;1.70;;
52434;SDS011;38354;52.892;6.148;2024-03-23T18:03:21;7.60;;;1.58;;
52434;SDS011;38354;52.892;6.148;2024-03-23T18:05:47;6.82;;;2.33;;
52434;SDS011;38354;52.892;6.148;2024-03-23T18:08:13;12.95;;;4.95;;
52434;SDS011;38354;52.892;6.148;2024-03-23T18:10:39;16.40;;;6.40;;
52434;SDS011;38354;52.892;6.148;2024-03-23T18:13:04;18.50;;;6.25;;
52434;SDS011;38354;52.892;6.148;2024-03-23T18:15:30;4.38;;;1.50;;
52434;SDS011;38354;52.892;6.148;2024-03-23T18:17:56;9.07;;;3.60;;
52434;SDS011;38354;52.892;6.148;2024-03-23T18:20:21;6.60;;;1.33;;
52434;SDS011;38354;52.892;6.148;2024-03-23T18:22:47;4.35;;;1.50;;
52434;SDS011;38354;52.892;6.148;2024-03-23T18:25:12;6.43;;;1.13;;
52434;SDS011;38354;52.892;6.148;2024-03-23T18:27:38;4.72;;;1.67;;
52434;SDS011;38354;52.892;6.148;2024-03-23T18:30:04;5.70;;;1.60;;
52434;SDS011;38354;52.892;6.148;2024-03-23T18:32:30;4.00;;;1.30;;
52434;SDS011;38354;52.892;6.148;2024-03-23T18:34:56;5.85;;;1.85;;
52434;SDS011;38354;52.892;6.148;2024-03-23T18:37:21;5.20;;;1.30;;
52434;SDS011;38354;52.892;6.148;2024-03-23T18:39:47;3.75;;;1.15;;
52434;SDS011;38354;52.892;6.148;2024-03-23T18:42:13;4.95;;;1.33;;
52434;SDS011;38354;52.892;6.148;2024-03-23T18:44:38;2.97;;;1.00;;
52434;SDS011;38354;52.892;6.148;2024-03-23T18:47:04;4.75;;;1.73;;
52434;SDS011;38354;52.892;6.148;2024-03-23T18:49:29;5.55;;;1.40;;
52434;SDS011;38354;52.892;6.148;2024-03-23T18:51:55;4.53;;;1.50;;
52434;SDS011;38354;52.892;6.148;2024-03-23T18:54:21;6.78;;;1.88;;
52434;SDS011;38354;52.892;6.148;2024-03-23T18:56:47;5.95;;;1.50;;
52434;SDS011;38354;52.892;6.148;2024-03-23T18:59:13;4.88;;;1.55;;
52434;SDS011;38354;52.892;6.148;2024-03-23T19:01:38;5.40;;;1.52;;
52434;SDS011;38354;52.892;6.148;2024-03-23T19:04:05;12.35;;;1.50;;
52434;SDS011;38354;52.892;6.148;2024-03-23T19:06:30;4.45;;;1.40;;
52434;SDS011;38354;52.892;6.148;2024-03-23T19:08:56;6.50;;;1.45;;
52434;SDS011;38354;52.892;6.148;2024-03-23T19:11:22;6.82;;;1.35;;
52434;SDS011;38354;52.892;6.148;2024-03-23T19:13:47;5.55;;;1.35;;
52434;SDS011;38354;52.892;6.148;2024-03-23T19:16:13;4.20;;;1.40;;
52434;SDS011;38354;52.892;6.148;2024-03-23T19:18:39;7.45;;;1.60;;
52434;SDS011;38354;52.892;6.148;2024-03-23T19:21:05;6.90;;;1.30;;
52434;SDS011;38354;52.892;6.148;2024-03-23T19:23:31;5.75;;;1.85;;
52434;SDS011;38354;52.892;6.148;2024-03-23T19:26:00;5.88;;;1.45;;
52434;SDS011;38354;52.892;6.148;2024-03-23T19:28:27;9.68;;;2.15;;
52434;SDS011;38354;52.892;6.148;2024-03-23T19:30:53;3.20;;;1.50;;
52434;SDS011;38354;52.892;6.148;2024-03-23T19:33:19;7.05;;;2.03;;
52434;SDS011;38354;52.892;6.148;2024-03-23T19:35:46;7.55;;;1.90;;
52434;SDS011;38354;52.892;6.148;2024-03-23T19:38:13;5.43;;;1.67;;
52434;SDS011;38354;52.892;6.148;2024-03-23T19:40:38;4.75;;;1.80;;
52434;SDS011;38354;52.892;6.148;2024-03-23T19:43:04;6.38;;;1.85;;
52434;SDS011;38354;52.892;6.148;2024-03-23T19:45:31;4.22;;;1.83;;
52434;SDS011;38354;52.892;6.148;2024-03-23T19:47:59;5.85;;;1.20;;
52434;SDS011;38354;52.892;6.148;2024-03-23T19:50:26;6.43;;;1.73;;
52434;SDS011;38354;52.892;6.148;2024-03-23T19:52:51;4.78;;;2.00;;
52434;SDS011;38354;52.892;6.148;2024-03-23T19:55:17;2.85;;;1.83;;
52434;SDS011;38354;52.892;6.148;2024-03-23T19:57:46;8.27;;;2.25;;
52434;SDS011;38354;52.892;6.148;2024-03-23T20:00:12;5.70;;;1.75;;
52434;SDS011;38354;52.892;6.148;2024-03-23T20:02:39;4.60;;;1.40;;
52434;SDS011;38354;52.892;6.148;2024-03-23T20:05:05;7.32;;;1.73;;
52434;SDS011;38354;52.892;6.148;2024-03-23T20:07:31;2.35;;;1.00;;
52434;SDS011;38354;52.892;6.148;2024-03-23T20:09:56;6.00;;;1.40;;
52434;SDS011;38354;52.892;6.148;2024-03-23T20:12:22;6.45;;;1.52;;
52434;SDS011;38354;52.892;6.148;2024-03-23T20:14:47;5.97;;;1.50;;
52434;SDS011;38354;52.892;6.148;2024-03-23T20:17:13;6.63;;;1.40;;
52434;SDS011;38354;52.892;6.148;2024-03-23T20:19:39;7.57;;;1.50;;
52434;SDS011;38354;52.892;6.148;2024-03-23T20:22:04;4.93;;;1.45;;
52434;SDS011;38354;52.892;6.148;2024-03-23T20:24:30;4.80;;;1.17;;
52434;SDS011;38354;52.892;6.148;2024-03-23T20:26:56;4.82;;;1.38;;
52434;SDS011;38354;52.892;6.148;2024-03-23T20:29:22;3.13;;;1.38;;
52434;SDS011;38354;52.892;6.148;2024-03-23T20:31:48;5.50;;;1.48;;
52434;SDS011;38354;52.892;6.148;2024-03-23T20:34:13;4.70;;;1.42;;
52434;SDS011;38354;52.892;6.148;2024-03-23T20:36:39;3.47;;;1.48;;
52434;SDS011;38354;52.892;6.148;2024-03-23T20:39:05;6.03;;;1.98;;
52434;SDS011;38354;52.892;6.148;2024-03-23T20:41:30;4.85;;;1.15;;
52434;SDS011;38354;52.892;6.148;2024-03-23T20:43:56;5.20;;;1.60;;
52434;SDS011;38354;52.892;6.148;2024-03-23T20:46:22;3.00;;;1.40;;
52434;SDS011;38354;52.892;6.148;2024-03-23T20:48:48;6.15;;;1.60;;
52434;SDS011;38354;52.892;6.148;2024-03-23T20:51:15;3.70;;;1.55;;
52434;SDS011;38354;52.892;6.148;2024-03-23T20:53:42;3.28;;;1.58;;
52434;SDS011;38354;52.892;6.148;2024-03-23T20:56:07;4.00;;;1.60;;
52434;SDS011;38354;52.892;6.148;2024-03-23T20:58:33;4.82;;;1.73;;
52434;SDS011;38354;52.892;6.148;2024-03-23T21:01:00;4.70;;;1.52;;
52434;SDS011;38354;52.892;6.148;2024-03-23T21:03:27;6.07;;;1.45;;
52434;SDS011;38354;52.892;6.148;2024-03-23T21:05:53;5.68;;;1.65;;
52434;SDS011;38354;52.892;6.148;2024-03-23T21:08:19;4.35;;;2.03;;
52434;SDS011;38354;52.892;6.148;2024-03-23T21:10:48;10.50;;;1.90;;
52434;SDS011;38354;52.892;6.148;2024-03-23T21:13:15;4.43;;;1.90;;
52434;SDS011;38354;52.892;6.148;2024-03-23T21:15:47;8.65;;;1.75;;
52434;SDS011;38354;52.892;6.148;2024-03-23T21:18:13;4.97;;;1.85;;
52434;SDS011;38354;52.892;6.148;2024-03-23T21:20:40;5.65;;;1.67;;
52434;SDS011;38354;52.892;6.148;2024-03-23T21:23:06;3.88;;;1.73;;
52434;SDS011;38354;52.892;6.148;2024-03-23T21:25:32;5.00;;;1.80;;